createdAt,value
2022-12-01T00:01:13.886Z,1.60
2022-12-01T00:03:41.696Z,2.05
2022-12-01T00:06:11.557Z,1.17
2022-12-01T00:08:39.375Z,2.97
2022-12-01T00:11:06.769Z,2.13
2022-12-01T00:13:34.747Z,1.38
2022-12-01T00:16:12.837Z,1.92
2022-12-01T00:18:40.942Z,2.85
2022-12-01T00:21:14.620Z,3.83
2022-12-01T00:23:43.977Z,5.55
2022-12-01T00:26:11.733Z,2.72
2022-12-01T00:28:39.997Z,3.15
2022-12-01T00:31:08.235Z,2.60
2022-12-01T00:33:37.583Z,2.25
2022-12-01T00:36:05.962Z,2.28
2022-12-01T00:38:33.929Z,2.67
2022-12-01T00:41:03.953Z,2.85
2022-12-01T00:43:31.754Z,4.60
2022-12-01T00:45:59.795Z,1.95
2022-12-01T00:48:27.741Z,1.13
2022-12-01T00:50:56.801Z,2.45
2022-12-01T00:53:25.160Z,5.35
2022-12-01T00:55:53.936Z,2.30
2022-12-01T00:58:21.862Z,2.72
2022-12-01T01:00:49.980Z,3.10
2022-12-01T01:03:18.005Z,2.28
2022-12-01T01:05:45.817Z,3.33
2022-12-01T01:08:15.674Z,2.20
2022-12-01T01:10:44.520Z,2.13
2022-12-01T01:13:13.304Z,1.92
2022-12-01T01:15:41.271Z,2.42
2022-12-01T01:18:11.574Z,1.55
2022-12-01T01:20:39.507Z,1.60
2022-12-01T01:23:07.583Z,2.42
2022-12-01T01:25:36.930Z,1.98
2022-12-01T01:28:04.852Z,3.67
2022-12-01T01:30:32.783Z,2.10
2022-12-01T01:33:00.631Z,2.72
2022-12-01T01:35:28.587Z,1.55
2022-12-01T01:37:56.321Z,2.20
2022-12-01T01:40:24.380Z,1.65
2022-12-01T01:42:53.728Z,2.05
2022-12-01T01:45:22.560Z,1.90
2022-12-01T01:47:51.301Z,2.28
2022-12-01T01:50:21.318Z,2.58
2022-12-01T01:52:52.044Z,2.10
2022-12-01T01:55:20.581Z,1.63
2022-12-01T01:57:48.378Z,2.00
2022-12-01T02:00:19.095Z,2.70
2022-12-01T02:02:48.101Z,2.88
2022-12-01T02:05:19.066Z,4.10
2022-12-01T02:07:48.083Z,3.08
2022-12-01T02:10:22.412Z,2.67
2022-12-01T02:13:05.128Z,0.95
2022-12-01T02:15:36.806Z,3.10
2022-12-01T02:18:08.846Z,0.98
2022-12-01T02:20:55.316Z,1.38
2022-12-01T02:23:33.604Z,1.73
2022-12-01T02:26:12.017Z,1.77
2022-12-01T02:28:50.368Z,1.77
2022-12-01T02:31:23.717Z,1.40
2022-12-01T02:33:54.446Z,2.03
2022-12-01T02:36:28.211Z,2.22
2022-12-01T02:38:58.115Z,2.20
2022-12-01T02:41:27.935Z,2.65
2022-12-01T02:43:58.409Z,1.75
2022-12-01T02:46:31.560Z,1.92
2022-12-01T02:49:00.679Z,3.53
2022-12-01T02:51:30.910Z,1.35
2022-12-01T02:53:59.740Z,3.40
2022-12-01T02:56:27.718Z,2.25
2022-12-01T02:58:55.925Z,3.42
2022-12-01T03:01:30.402Z,2.20
2022-12-01T03:04:03.856Z,2.15
2022-12-01T03:06:38.157Z,3.00
2022-12-01T03:09:10.493Z,9.55
2022-12-01T03:11:42.135Z,6.20
2022-12-01T03:14:15.543Z,3.72
2022-12-01T03:16:49.295Z,3.53
2022-12-01T03:19:19.663Z,3.55
2022-12-01T03:21:50.297Z,1.80
2022-12-01T03:24:19.394Z,1.95
2022-12-01T03:26:48.430Z,1.35
2022-12-01T03:29:19.372Z,0.93
2022-12-01T03:31:49.591Z,4.15
2022-12-01T03:34:19.402Z,1.58
2022-12-01T03:36:49.676Z,1.05
2022-12-01T03:39:20.101Z,3.40
2022-12-01T03:41:51.755Z,2.22
2022-12-01T03:44:21.610Z,1.10
2022-12-01T03:46:54.037Z,2.55
2022-12-01T03:49:23.900Z,0.88
2022-12-01T03:51:56.196Z,2.58
2022-12-01T03:54:28.529Z,1.27
2022-12-01T03:56:57.684Z,2.60
2022-12-01T03:59:26.265Z,1.48
2022-12-01T04:01:55.579Z,1.70
2022-12-01T04:04:23.586Z,1.15
2022-12-01T04:06:51.452Z,2.10
2022-12-01T04:09:19.468Z,1.25
2022-12-01T04:12:04.925Z,3.42
2022-12-01T04:14:32.811Z,1.05
2022-12-01T04:17:02.051Z,2.42
2022-12-01T04:19:29.740Z,1.38
2022-12-01T04:21:57.687Z,1.67
2022-12-01T04:24:25.655Z,1.75
2022-12-01T04:26:53.462Z,2.55
2022-12-01T04:29:21.489Z,2.53
2022-12-01T04:31:49.330Z,2.83
2022-12-01T04:34:18.393Z,1.52
2022-12-01T04:36:46.338Z,0.98
2022-12-01T04:39:14.160Z,1.75
2022-12-01T04:41:42.090Z,2.83
2022-12-01T04:44:10.615Z,1.50
2022-12-01T04:46:38.625Z,1.70
2022-12-01T04:49:06.858Z,1.30
2022-12-01T04:51:36.053Z,2.28
2022-12-01T04:54:05.930Z,2.00
2022-12-01T04:56:34.045Z,2.45
2022-12-01T04:59:01.901Z,3.40
2022-12-01T05:01:29.930Z,1.70
2022-12-01T05:03:57.784Z,2.13
2022-12-01T05:06:26.583Z,2.65
2022-12-01T05:08:57.517Z,2.78
2022-12-01T05:11:25.844Z,1.73
2022-12-01T05:13:53.710Z,2.20
2022-12-01T05:16:22.820Z,2.03
2022-12-01T05:18:51.489Z,0.90
2022-12-01T05:21:18.638Z,2.40
2022-12-01T05:23:46.697Z,1.65
2022-12-01T05:26:15.907Z,0.68
2022-12-01T05:28:43.817Z,3.20
2022-12-01T05:31:14.078Z,2.25
2022-12-01T05:33:41.893Z,1.67
2022-12-01T05:36:10.179Z,4.20
2022-12-01T05:38:39.018Z,3.10
2022-12-01T05:41:06.984Z,1.88
2022-12-01T05:43:36.283Z,1.55
2022-12-01T05:46:04.445Z,2.22
2022-12-01T05:48:32.415Z,4.35
2022-12-01T05:51:00.471Z,2.55
2022-12-01T05:53:28.355Z,3.22
2022-12-01T05:55:56.431Z,1.23
2022-12-01T05:58:24.403Z,2.03
2022-12-01T06:00:53.772Z,3.67
2022-12-01T06:03:21.763Z,3.03
2022-12-01T06:05:49.834Z,2.15
2022-12-01T06:08:17.756Z,2.40
2022-12-01T06:10:45.764Z,1.55
2022-12-01T06:13:13.622Z,3.67
2022-12-01T06:15:41.418Z,1.58
2022-12-01T06:18:10.629Z,3.47
2022-12-01T06:20:38.561Z,1.80
2022-12-01T06:23:06.427Z,5.28
2022-12-01T06:25:34.399Z,5.57
2022-12-01T06:28:02.499Z,2.85
2022-12-01T06:30:30.418Z,3.67
2022-12-01T06:32:58.202Z,3.83
2022-12-01T06:35:27.488Z,1.13
2022-12-01T06:37:55.311Z,1.45
2022-12-01T06:40:23.414Z,5.47
2022-12-01T06:42:51.295Z,2.85
2022-12-01T06:45:19.567Z,5.65
2022-12-01T06:47:48.394Z,4.65
2022-12-01T06:50:16.307Z,3.42
2022-12-01T06:52:45.689Z,2.63
2022-12-01T06:55:13.587Z,2.13
2022-12-01T06:57:41.716Z,7.28
2022-12-01T07:00:10.444Z,3.53
2022-12-01T07:02:39.006Z,4.22
2022-12-01T07:05:07.292Z,4.05
2022-12-01T07:07:36.520Z,3.15
2022-12-01T07:10:06.453Z,1.55
2022-12-01T07:12:34.225Z,3.13
2022-12-01T07:15:02.725Z,2.47
2022-12-01T07:17:30.512Z,1.70
2022-12-01T07:19:58.217Z,5.97
2022-12-01T07:22:32.279Z,1.35
2022-12-01T07:25:00.559Z,1.80
2022-12-01T07:27:31.811Z,3.78
2022-12-01T07:29:59.675Z,6.22
2022-12-01T07:32:27.550Z,6.18
2022-12-01T07:34:55.507Z,3.70
2022-12-01T07:37:23.282Z,3.13
2022-12-01T07:39:51.177Z,3.42
2022-12-01T07:42:19.195Z,5.65
2022-12-01T07:44:48.455Z,1.85
2022-12-01T07:47:16.255Z,4.38
2022-12-01T07:49:44.146Z,2.63
2022-12-01T07:52:11.820Z,1.17
2022-12-01T07:54:39.709Z,2.63
2022-12-01T07:57:07.506Z,6.53
2022-12-01T07:59:35.285Z,1.95
2022-12-01T08:02:04.567Z,1.63
2022-12-01T08:04:32.501Z,2.65
2022-12-01T08:07:00.265Z,3.83
2022-12-01T08:09:28.092Z,3.92
2022-12-01T08:11:55.839Z,3.10
2022-12-01T08:14:23.710Z,3.95
2022-12-01T08:16:51.625Z,4.93
2022-12-01T08:19:20.971Z,3.63
2022-12-01T08:21:48.835Z,1.88
2022-12-01T08:24:16.728Z,2.58
2022-12-01T08:26:44.567Z,3.17
2022-12-01T08:29:17.033Z,6.38
2022-12-01T08:31:47.826Z,3.13
2022-12-01T08:34:15.716Z,2.58
2022-12-01T08:36:44.938Z,3.97
2022-12-01T08:39:12.792Z,5.80
2022-12-01T08:41:40.606Z,6.03
2022-12-01T08:44:08.481Z,2.63
2022-12-01T08:46:36.755Z,3.33
2022-12-01T08:49:05.231Z,4.70
2022-12-01T08:51:33.494Z,3.95
2022-12-01T08:54:02.645Z,2.03
2022-12-01T08:56:31.951Z,6.68
2022-12-01T08:59:00.013Z,2.75
2022-12-01T09:01:28.329Z,2.55
2022-12-01T09:04:06.677Z,1.67
2022-12-01T09:06:35.353Z,1.70
2022-12-01T09:09:04.390Z,1.92
2022-12-01T09:11:32.252Z,3.90
2022-12-01T09:14:00.767Z,2.97
2022-12-01T09:16:28.731Z,2.72
2022-12-01T09:18:56.804Z,2.70
2022-12-01T09:21:25.551Z,2.20
2022-12-01T09:23:53.458Z,3.08
2022-12-01T09:26:23.078Z,1.98
2022-12-01T09:28:53.602Z,2.78
2022-12-01T09:31:23.574Z,3.53
2022-12-01T09:33:55.670Z,2.20
2022-12-01T09:36:23.446Z,1.85
2022-12-01T09:38:51.315Z,1.70
2022-12-01T09:41:21.274Z,2.28
2022-12-01T09:43:54.045Z,3.28
2022-12-01T09:46:23.927Z,2.88
2022-12-01T09:48:53.782Z,2.17
2022-12-01T09:51:22.719Z,1.92
2022-12-01T09:53:51.453Z,3.13
2022-12-01T09:56:21.213Z,2.17
2022-12-01T09:58:52.042Z,2.67
2022-12-01T10:01:26.946Z,3.03
2022-12-01T10:03:56.968Z,1.58
2022-12-01T10:06:29.331Z,3.55
2022-12-01T10:09:01.480Z,4.95
2022-12-01T10:11:32.880Z,1.40
2022-12-01T10:14:02.585Z,1.52
2022-12-01T10:16:34.574Z,2.35
2022-12-01T10:19:06.661Z,2.35
2022-12-01T10:21:41.695Z,3.03
2022-12-01T10:24:22.105Z,1.98
2022-12-01T10:26:52.787Z,2.45
2022-12-01T10:29:27.973Z,3.47
2022-12-01T10:31:57.885Z,3.45
2022-12-01T10:34:26.664Z,1.38
2022-12-01T10:36:54.641Z,2.67
2022-12-01T10:39:25.685Z,3.03
2022-12-01T10:41:53.600Z,2.35
2022-12-01T10:44:21.411Z,2.95
2022-12-01T10:46:52.131Z,3.35
2022-12-01T10:49:20.222Z,1.77
2022-12-01T10:51:53.107Z,1.70
2022-12-01T10:54:21.370Z,1.70
2022-12-01T10:56:51.018Z,4.28
2022-12-01T10:59:27.034Z,2.70
2022-12-01T11:01:57.947Z,3.22
2022-12-01T11:04:30.702Z,3.75
2022-12-01T11:06:58.692Z,4.15
2022-12-01T11:09:28.033Z,2.33
2022-12-01T11:11:57.116Z,3.00
2022-12-01T11:14:28.442Z,3.50
2022-12-01T11:16:57.807Z,2.28
2022-12-01T11:19:30.781Z,3.58
2022-12-01T11:21:59.533Z,2.92
2022-12-01T11:24:31.654Z,2.00
2022-12-01T11:27:00.140Z,2.65
2022-12-01T11:29:31.931Z,2.97
2022-12-01T11:32:02.351Z,4.15
2022-12-01T11:34:31.803Z,2.88
2022-12-01T11:37:01.622Z,2.72
2022-12-01T11:39:32.472Z,5.60
2022-12-01T11:42:01.588Z,2.78
2022-12-01T11:44:50.178Z,2.47
2022-12-01T11:47:24.387Z,1.55
2022-12-01T11:49:56.676Z,1.88
2022-12-01T11:52:27.327Z,3.80
2022-12-01T11:55:09.658Z,2.55
2022-12-01T11:57:40.952Z,2.72
2022-12-01T12:00:15.760Z,2.80
2022-12-01T12:02:49.195Z,7.72
2022-12-01T12:05:34.612Z,5.22
2022-12-01T12:08:05.825Z,2.38
2022-12-01T12:10:39.591Z,2.58
2022-12-01T12:13:13.621Z,2.05
2022-12-01T12:18:26.501Z,2.95
2022-12-01T12:21:01.633Z,2.38
2022-12-01T12:23:38.873Z,2.63
2022-12-01T12:26:11.083Z,2.38
2022-12-01T12:28:46.633Z,3.03
2022-12-01T12:31:19.254Z,2.90
2022-12-01T12:34:00.586Z,2.55
2022-12-01T12:36:33.803Z,3.00
2022-12-01T12:39:06.312Z,2.83
2022-12-01T12:41:36.681Z,3.20
2022-12-01T12:44:13.510Z,2.85
2022-12-01T12:46:46.736Z,3.53
2022-12-01T12:49:24.749Z,2.58
2022-12-01T12:51:55.379Z,2.47
2022-12-01T12:54:26.676Z,3.20
2022-12-01T12:56:56.580Z,3.53
2022-12-01T12:59:26.196Z,2.28
2022-12-01T13:01:58.718Z,1.33
2022-12-01T13:04:32.268Z,3.30
2022-12-01T13:07:03.109Z,2.30
2022-12-01T13:09:34.396Z,2.85
2022-12-01T13:12:04.925Z,2.00
2022-12-01T13:14:35.554Z,2.42
2022-12-01T13:17:07.245Z,2.33
2022-12-01T13:19:37.631Z,1.98
2022-12-01T13:22:05.723Z,3.10
2022-12-01T13:24:33.875Z,3.45
2022-12-01T13:27:04.554Z,3.15
2022-12-01T13:29:34.165Z,2.08
2022-12-01T13:32:02.696Z,3.42
2022-12-01T13:34:34.086Z,3.53
2022-12-01T13:37:03.331Z,2.20
2022-12-01T13:39:35.617Z,3.83
2022-12-01T13:42:04.960Z,2.85
2022-12-01T13:44:34.864Z,2.83
2022-12-01T13:47:04.983Z,2.95
2022-12-01T13:49:34.824Z,2.38
2022-12-01T13:52:28.082Z,2.00
2022-12-01T13:55:03.440Z,2.75
2022-12-01T13:57:32.421Z,2.58
2022-12-01T14:00:06.084Z,3.03
2022-12-01T14:02:42.726Z,2.88
2022-12-01T14:05:29.265Z,2.75
2022-12-01T14:07:58.426Z,2.95
2022-12-01T14:10:31.041Z,3.50
2022-12-01T14:13:00.741Z,2.88
2022-12-01T14:15:31.129Z,2.75
2022-12-01T14:18:00.365Z,3.53
2022-12-01T14:20:28.284Z,3.00
2022-12-01T14:23:05.780Z,3.25
2022-12-01T14:25:33.492Z,2.13
2022-12-01T14:28:02.477Z,2.40
2022-12-01T14:30:49.894Z,3.03
2022-12-01T14:33:36.319Z,2.50
2022-12-01T14:36:04.938Z,3.22
2022-12-01T14:38:34.480Z,3.05
2022-12-01T14:41:07.469Z,2.80
2022-12-01T14:43:53.562Z,2.78
2022-12-01T14:46:23.139Z,2.60
2022-12-01T14:48:51.438Z,3.05
2022-12-01T14:51:23.431Z,2.75
2022-12-01T14:53:53.131Z,2.88
2022-12-01T14:56:21.430Z,2.50
2022-12-01T14:58:52.849Z,3.50
2022-12-01T15:01:22.023Z,2.28
2022-12-01T15:03:51.069Z,2.92
2022-12-01T15:06:19.411Z,2.58
2022-12-01T15:09:10.457Z,3.45
2022-12-01T15:11:39.077Z,3.22
2022-12-01T15:14:22.152Z,2.85
2022-12-01T15:16:49.966Z,2.60
2022-12-01T15:19:34.742Z,3.53
2022-12-01T15:22:05.877Z,2.20
2022-12-01T15:24:34.163Z,2.58
2022-12-01T15:27:04.146Z,2.60
2022-12-01T15:29:33.230Z,3.25
2022-12-01T15:32:01.925Z,2.72
2022-12-01T15:34:31.501Z,1.98
2022-12-01T15:37:00.048Z,2.95
2022-12-01T15:39:31.376Z,2.85
2022-12-01T15:41:59.637Z,2.70
2022-12-01T15:44:30.789Z,2.58
2022-12-01T15:46:58.576Z,2.25
2022-12-01T15:49:29.578Z,3.35
2022-12-01T15:52:05.978Z,2.67
2022-12-01T15:54:33.938Z,2.55
2022-12-01T15:57:01.658Z,2.72
2022-12-01T15:59:32.946Z,3.63
2022-12-01T16:02:05.717Z,2.55
2022-12-01T16:04:35.472Z,2.28
2022-12-01T16:07:05.644Z,2.63
2022-12-01T16:09:35.769Z,1.50
2022-12-01T16:12:04.307Z,7.10
2022-12-01T16:14:34.561Z,3.17
2022-12-01T16:17:02.725Z,1.13
2022-12-01T16:19:31.318Z,7.55
2022-12-01T16:22:05.179Z,4.32
2022-12-01T16:24:34.382Z,4.80
2022-12-01T16:27:03.419Z,2.85
2022-12-01T16:29:32.673Z,3.10
2022-12-01T16:32:25.919Z,3.63
2022-12-01T16:34:54.294Z,2.40
2022-12-01T16:37:22.842Z,3.60
2022-12-01T16:39:51.055Z,2.78
2022-12-01T16:42:20.580Z,2.60
2022-12-01T16:44:48.687Z,1.48
2022-12-01T16:47:18.906Z,4.25
2022-12-01T16:49:46.776Z,4.88
2022-12-01T16:52:43.281Z,4.25
2022-12-01T16:55:02.884Z,4.00
2022-12-01T16:57:30.798Z,7.13
2022-12-01T16:59:58.748Z,3.33
2022-12-01T17:02:27.903Z,1.77
2022-12-01T17:04:55.691Z,5.38
2022-12-01T17:07:23.663Z,6.45
2022-12-01T17:09:51.558Z,3.63
2022-12-01T17:12:19.375Z,4.07
2022-12-01T17:14:47.217Z,3.45
2022-12-01T17:17:15.105Z,1.98
2022-12-01T17:19:44.296Z,5.60
2022-12-01T17:22:12.163Z,4.78
2022-12-01T17:24:39.975Z,4.15
2022-12-01T17:27:07.832Z,2.70
2022-12-01T17:29:35.809Z,5.00
2022-12-01T17:32:03.727Z,3.13
2022-12-01T17:34:31.646Z,2.15
2022-12-01T17:37:00.789Z,1.80
2022-12-01T17:39:28.756Z,2.30
2022-12-01T17:41:56.479Z,2.47
2022-12-01T17:44:24.292Z,3.28
2022-12-01T17:46:52.151Z,2.95
2022-12-01T17:49:20.062Z,4.05
2022-12-01T17:51:47.906Z,3.55
2022-12-01T17:54:17.176Z,4.85
2022-12-01T17:56:44.938Z,5.10
2022-12-01T17:59:12.804Z,4.75
2022-12-01T18:01:41.267Z,5.63
2022-12-01T18:04:09.096Z,5.03
2022-12-01T18:06:37.014Z,5.47
2022-12-01T18:09:04.919Z,5.40
2022-12-01T18:11:34.227Z,5.90
2022-12-01T18:14:02.300Z,5.88
2022-12-01T18:16:31.542Z,5.78
2022-12-01T18:19:00.384Z,5.97
2022-12-01T18:21:28.775Z,5.78
2022-12-01T18:23:57.303Z,6.88
2022-12-01T18:26:25.709Z,7.13
2022-12-01T18:28:58.745Z,6.70
2022-12-01T18:31:27.031Z,6.82
2022-12-01T18:33:54.946Z,6.57
2022-12-01T18:36:23.584Z,7.28
2022-12-01T18:38:52.060Z,6.55
2022-12-01T18:41:20.487Z,7.20
2022-12-01T18:43:48.546Z,7.32
2022-12-01T18:46:18.950Z,7.18
2022-12-01T18:48:47.517Z,6.00
2022-12-01T18:51:15.505Z,6.82
2022-12-01T18:53:45.440Z,7.07
2022-12-01T18:56:15.246Z,6.47
2022-12-01T18:58:43.623Z,5.60
2022-12-01T19:01:20.455Z,6.00
2022-12-01T19:03:48.764Z,5.10
2022-12-01T19:06:16.855Z,5.00
2022-12-01T19:08:47.899Z,4.05
2022-12-01T19:11:16.001Z,4.35
2022-12-01T19:13:43.984Z,4.68
2022-12-01T19:16:12.840Z,3.80
2022-12-01T19:18:42.479Z,3.90
2022-12-01T19:21:11.318Z,4.68
2022-12-01T19:23:39.431Z,3.13
2022-12-01T19:26:07.861Z,3.65
2022-12-01T19:28:36.651Z,4.13
2022-12-01T19:31:07.030Z,2.45
2022-12-01T19:33:35.137Z,2.67
2022-12-01T19:36:07.111Z,1.38
2022-12-01T19:38:35.025Z,3.90
2022-12-01T19:41:03.045Z,4.35
2022-12-01T19:43:30.836Z,4.13
2022-12-01T19:45:59.597Z,5.05
2022-12-01T19:48:27.498Z,3.25
2022-12-01T19:50:55.378Z,1.45
2022-12-01T19:53:29.053Z,6.00
2022-12-01T19:56:01.289Z,2.10
2022-12-01T19:58:29.098Z,2.70
2022-12-01T20:01:02.846Z,3.28
2022-12-01T20:03:30.746Z,6.50
2022-12-01T20:06:01.743Z,7.95
2022-12-01T20:08:35.066Z,7.95
2022-12-01T20:11:04.357Z,7.65
2022-12-01T20:13:32.841Z,7.50
2022-12-01T20:16:04.484Z,7.38
2022-12-01T20:18:32.866Z,7.65
2022-12-01T20:21:04.735Z,7.35
2022-12-01T20:23:33.972Z,7.72
2022-12-01T20:26:02.150Z,7.68
2022-12-01T20:28:30.320Z,7.72
2022-12-01T20:30:58.540Z,8.02
2022-12-01T20:33:27.228Z,8.13
2022-12-01T20:35:55.182Z,8.40
2022-12-01T20:38:27.262Z,8.10
2022-12-01T20:40:56.917Z,8.52
2022-12-01T20:43:24.822Z,7.35
2022-12-01T20:45:52.745Z,8.20
2022-12-01T20:48:20.663Z,8.07
2022-12-01T20:50:48.509Z,8.35
2022-12-01T20:53:16.376Z,8.68
2022-12-01T20:55:44.310Z,7.88
2022-12-01T20:58:13.506Z,7.97
2022-12-01T21:00:44.157Z,8.25
2022-12-01T21:03:12.379Z,8.35
2022-12-01T21:05:40.431Z,8.70
2022-12-01T21:08:09.498Z,9.45
2022-12-01T21:10:37.694Z,8.48
2022-12-01T21:13:31.724Z,7.63
2022-12-01T21:16:05.870Z,8.75
2022-12-01T21:18:39.881Z,8.05
2022-12-01T21:21:13.640Z,8.98
2022-12-01T21:23:41.424Z,8.93
2022-12-01T21:26:10.815Z,9.05
2022-12-01T21:28:39.020Z,8.77
2022-12-01T21:31:12.303Z,8.50
2022-12-01T21:33:40.490Z,8.77
2022-12-01T21:36:14.614Z,9.43
2022-12-01T21:38:42.993Z,8.88
2022-12-01T21:41:16.128Z,8.85
2022-12-01T21:43:43.993Z,8.98
2022-12-01T21:46:15.789Z,9.48
2022-12-01T21:48:44.129Z,8.38
2022-12-01T21:51:14.143Z,9.00
2022-12-01T21:53:42.008Z,9.10
2022-12-01T21:56:16.119Z,9.23
2022-12-01T21:58:45.062Z,9.70
2022-12-01T22:01:18.639Z,9.13
2022-12-01T22:03:46.957Z,1.98
2022-12-01T22:06:35.783Z,2.45
2022-12-01T22:09:13.213Z,4.47
2022-12-01T22:11:43.504Z,2.22
2022-12-01T22:14:12.713Z,3.92
2022-12-01T22:16:43.587Z,3.00
2022-12-01T22:19:21.930Z,4.95
2022-12-01T22:21:50.161Z,3.53
2022-12-01T22:24:28.224Z,1.75
2022-12-01T22:27:14.061Z,2.53
2022-12-01T22:29:43.104Z,2.15
2022-12-01T22:32:34.830Z,3.17
2022-12-01T22:35:15.550Z,2.33
2022-12-01T22:37:45.975Z,2.78
2022-12-01T22:40:30.617Z,0.90
2022-12-01T22:42:59.978Z,2.92
2022-12-01T22:45:27.995Z,2.00
2022-12-01T22:47:57.294Z,4.63
2022-12-01T22:50:28.594Z,5.38
2022-12-01T22:52:59.266Z,2.95
2022-12-01T22:55:27.239Z,2.58
2022-12-01T22:57:55.137Z,3.92
2022-12-01T23:00:24.149Z,3.10
2022-12-01T23:02:53.440Z,2.67
2022-12-01T23:05:23.666Z,1.55
2022-12-01T23:07:53.347Z,5.88
2022-12-01T23:10:22.878Z,2.25
2022-12-01T23:12:51.666Z,2.15
2022-12-01T23:15:31.560Z,2.00
2022-12-01T23:18:00.655Z,2.47
2022-12-01T23:20:31.185Z,1.90
2022-12-01T23:23:01.404Z,3.33
2022-12-01T23:25:29.778Z,2.55
2022-12-01T23:28:00.189Z,2.00
2022-12-01T23:30:28.687Z,4.38
2022-12-01T23:33:04.227Z,3.30
2022-12-01T23:35:34.551Z,2.95
2022-12-01T23:38:03.748Z,2.75
2022-12-01T23:40:32.639Z,3.53
2022-12-01T23:43:03.595Z,2.42
2022-12-01T23:45:33.077Z,2.58
2022-12-01T23:48:00.945Z,4.18
2022-12-01T23:50:30.447Z,1.35
2022-12-01T23:52:58.364Z,2.67
2022-12-01T23:55:28.789Z,1.55
2022-12-01T23:57:57.062Z,2.78
